Time;durP1;ratioP1;P1;durP2;ratioP2;P2;SDS_P1;SDS_P2;PMS_P1;PMS_P2;Temp;Humidity;BMP_temperature;BMP_pressure;BME280_temperature;BME280_humidity;BME280_pressure;Samples;Min_cycle;Max_cycle;Signal;HPM_P1;HPM_P2
2022/10/12 00:01:02;;;;;;;11.75;4.45;;;;;;;6.43;100.00;102434.63;5051867;28;20086;-45
2022/10/12 00:03:30;;;;;;;10.65;4.25;;;;;;;6.34;100.00;102441.78;5053422;28;20053;-48
2022/10/12 00:06:05;;;;;;;8.05;3.85;;;;;;;6.35;100.00;102433.06;5052335;28;20052;-51
2022/10/12 00:08:34;;;;;;;10.35;3.72;;;;;;;6.37;100.00;102428.69;5051901;28;20044;-46
2022/10/12 00:11:02;;;;;;;9.63;3.55;;;;;;;6.47;100.00;102432.78;5054768;28;20052;-47
2022/10/12 00:13:31;;;;;;;11.05;4.28;;;;;;;6.45;100.00;102434.59;5055940;28;20045;-45
2022/10/12 00:16:02;;;;;;;11.23;4.07;;;;;;;6.41;100.00;102431.19;5055953;28;20080;-46
2022/10/12 00:18:31;;;;;;;13.43;4.40;;;;;;;6.43;100.00;102425.91;5054465;28;20079;-44
2022/10/12 00:21:06;;;;;;;10.43;3.88;;;;;;;6.36;100.00;102426.94;5055265;28;20087;-45
2022/10/12 00:23:38;;;;;;;9.07;4.18;;;;;;;6.44;100.00;102427.63;5055550;28;20492;-48
2022/10/12 00:26:10;;;;;;;10.30;3.60;;;;;;;6.48;100.00;102423.22;5055473;28;20056;-48
2022/10/12 00:28:38;;;;;;;14.32;3.72;;;;;;;6.41;100.00;102419.88;5054162;28;20053;-51
2022/10/12 00:31:08;;;;;;;10.07;3.80;;;;;;;6.43;100.00;102433.75;5053673;28;20614;-52
2022/10/12 00:33:37;;;;;;;10.20;3.58;;;;;;;6.43;100.00;102428.53;5051691;28;20045;-50
2022/10/12 00:36:17;;;;;;;11.77;3.60;;;;;;;6.45;100.00;102437.22;5052930;28;20044;-47
2022/10/12 00:38:45;;;;;;;10.00;3.28;;;;;;;6.41;100.00;102441.63;5053268;28;20037;-51
2022/10/12 00:41:15;;;;;;;8.93;3.67;;;;;;;6.48;100.00;102437.13;5054088;28;20052;-49
2022/10/12 00:43:44;;;;;;;9.27;3.33;;;;;;;6.48;100.00;102437.13;5055631;28;20507;-52
2022/10/12 00:46:17;;;;;;;9.68;3.90;;;;;;;6.39;100.00;102430.38;5055336;28;20037;-49
2022/10/12 00:48:49;;;;;;;8.07;3.22;;;;;;;6.40;100.00;102436.44;5054978;28;20045;-46
2022/10/12 00:51:21;;;;;;;12.00;3.30;;;;;;;6.33;100.00;102434.88;5052969;28;20041;-48
2022/10/12 00:54:02;;;;;;;8.13;3.25;;;;;;;6.33;100.00;102432.25;5054029;28;20999;-51
2022/10/12 00:56:34;;;;;;;8.73;3.45;;;;;;;6.33;100.00;102443.56;5054881;28;20049;-51
2022/10/12 00:59:06;;;;;;;10.65;3.90;;;;;;;6.30;100.00;102429.69;5054450;28;20400;-50
2022/10/12 01:01:36;;;;;;;10.70;3.63;;;;;;;6.35;100.00;102433.06;5052361;28;20033;-48
2022/10/12 01:04:06;;;;;;;10.93;3.65;;;;;;;6.29;100.00;102433.22;5051092;28;20045;-50
2022/10/12 01:06:36;;;;;;;9.30;3.55;;;;;;;6.25;100.00;102432.41;5050921;28;20048;-50
2022/10/12 01:09:04;;;;;;;8.23;3.70;;;;;;;6.20;100.00;102432.53;5053791;28;20045;-45
2022/10/12 01:11:32;;;;;;;10.20;3.60;;;;;;;6.24;100.00;102428.94;5054278;28;20041;-48
2022/10/12 01:14:00;;;;;;;10.57;3.72;;;;;;;6.24;100.00;102423.72;5052332;28;20558;-45
2022/10/12 01:16:36;;;;;;;8.25;3.47;;;;;;;6.27;100.00;102422.78;5051474;28;20131;-48
2022/10/12 01:19:15;;;;;;;12.05;4.00;;;;;;;6.25;100.00;102430.66;5050626;28;20087;-47
2022/10/12 01:21:50;;;;;;;12.23;3.85;;;;;;;6.20;100.00;102427.28;5052494;28;20045;-48
2022/10/12 01:24:44;;;;;;;9.80;3.67;;;;;;;6.17;100.00;102421.25;5052000;28;20052;-47
2022/10/12 01:27:44;;;;;;;9.60;3.38;;;;;;;6.23;100.00;102419.38;5051902;28;20061;-46
2022/10/12 01:30:20;;;;;;;9.70;3.30;;;;;;;6.23;100.00;102419.38;5054178;28;20056;-47
2022/10/12 01:33:24;;;;;;;10.15;3.92;;;;;;;6.14;100.00;102413.50;5054337;28;20381;-50
2022/10/12 01:36:00;;;;;;;7.10;3.25;;;;;;;6.17;100.00;102414.28;5052424;28;20049;-49
2022/10/12 01:38:38;;;;;;;9.00;3.50;;;;;;;6.13;100.00;102407.41;5051620;28;20053;-48
2022/10/12 01:41:13;;;;;;;6.82;3.13;;;;;;;6.11;100.00;102413.53;5053381;28;20102;-46
2022/10/12 01:43:44;;;;;;;8.35;3.22;;;;;;;6.08;100.00;102411.84;5052046;28;20080;-48
2022/10/12 01:46:45;;;;;;;7.25;2.95;;;;;;;6.17;100.00;102406.44;5053181;28;20053;-47
2022/10/12 01:49:16;;;;;;;9.43;3.47;;;;;;;6.14;100.00;102395.22;5053934;28;20055;-45
2022/10/12 01:52:11;;;;;;;11.35;3.17;;;;;;;6.04;100.00;102397.13;5053135;28;20040;-48
2022/10/12 01:54:53;;;;;;;8.70;2.85;;;;;;;6.05;100.00;102394.53;5043708;28;20131;-48
2022/10/12 01:57:32;;;;;;;5.45;2.67;;;;;;;5.99;100.00;102397.25;5051283;28;20041;-52
2022/10/12 02:00:05;;;;;;;9.18;3.00;;;;;;;5.99;100.00;102385.97;5054095;28;20522;-51
2022/10/12 02:02:46;;;;;;;9.52;3.08;;;;;;;6.02;100.00;102385.88;5051000;28;20087;-49
2022/10/12 02:05:21;;;;;;;8.48;3.15;;;;;;;6.15;100.00;102383.84;5050244;28;20083;-49
2022/10/12 02:07:55;;;;;;;6.93;2.70;;;;;;;6.07;100.00;102378.81;5051579;28;20044;-47
2022/10/12 02:10:29;;;;;;;6.65;2.92;;;;;;;6.08;100.00;102380.50;5053606;28;20099;-48
2022/10/12 02:13:00;;;;;;;7.43;2.78;;;;;;;6.10;100.00;102373.50;5053575;28;20037;-51
2022/10/12 02:15:30;;;;;;;5.05;2.42;;;;;;;6.11;100.00;102375.25;5053413;28;20048;-50
2022/10/12 02:18:03;;;;;;;5.53;2.83;;;;;;;6.11;100.00;102371.75;5053430;28;20444;-50
2022/10/12 02:20:33;;;;;;;6.40;3.10;;;;;;;6.09;100.00;102367.44;5053056;28;20490;-46
2022/10/12 02:23:02;;;;;;;5.80;2.60;;;;;;;6.05;100.00;102372.75;5053322;28;20053;-48
2022/10/12 02:25:33;;;;;;;6.32;2.60;;;;;;;5.99;100.00;102365.06;5052144;28;20055;-50
2022/10/12 02:28:05;;;;;;;5.47;2.30;;;;;;;5.99;100.00;102365.06;5050940;28;20049;-48
2022/10/12 02:30:38;;;;;;;8.27;2.78;;;;;;;5.93;100.00;102361.66;5050497;28;20048;-52
2022/10/12 02:33:13;;;;;;;9.68;3.10;;;;;;;5.97;100.00;102365.06;5048489;28;20045;-52
2022/10/12 02:35:50;;;;;;;8.55;2.42;;;;;;;5.88;100.00;102358.28;5049789;28;20053;-48
2022/10/12 02:38:25;;;;;;;7.20;2.78;;;;;;;5.89;100.00;102357.38;5050767;28;20049;-46
2022/10/12 02:40:57;;;;;;;9.07;2.83;;;;;;;5.86;100.00;102359.19;5052498;28;20056;-47
2022/10/12 02:43:30;;;;;;;6.50;2.97;;;;;;;5.91;100.00;102352.97;5052845;28;20059;-48
2022/10/12 02:45:58;;;;;;;;;;;;;;;5.89;100.00;102351.28;5053442;28;20049;-49
2022/10/12 02:48:29;;;;;;;7.28;2.55;;;;;;;5.87;100.00;102343.50;5052829;28;20012;-48
2022/10/12 02:50:59;;;;;;;7.40;2.72;;;;;;;5.81;100.00;102350.59;5051834;28;20099;-50
2022/10/12 02:53:29;;;;;;;7.97;2.75;;;;;;;5.85;100.00;102347.03;5052608;28;20044;-47
2022/10/12 02:56:02;;;;;;;9.90;2.78;;;;;;;5.82;100.00;102355.81;5050134;28;20102;-51
2022/10/12 02:58:31;;;;;;;6.63;2.28;;;;;;;5.81;100.00;102354.09;5050012;28;20068;-50
2022/10/12 03:00:59;;;;;;;6.90;2.45;;;;;;;5.80;100.00;102348.91;5050133;28;20546;-49
2022/10/12 03:03:29;;;;;;;7.65;2.85;;;;;;;5.66;100.00;102342.22;5048768;28;20048;-48
2022/10/12 03:05:57;;;;;;;6.40;2.70;;;;;;;5.69;100.00;102346.50;5050316;28;20083;-48
2022/10/12 03:08:25;;;;;;;7.82;3.00;;;;;;;5.69;100.00;102346.50;5050612;28;20095;-49
2022/10/12 03:10:53;;;;;;;6.22;2.63;;;;;;;5.64;100.00;102346.56;5052399;28;20045;-53
2022/10/12 03:13:21;;;;;;;7.65;3.10;;;;;;;5.67;100.00;102337.84;5049513;28;20037;-51
2022/10/12 03:15:49;;;;;;;5.47;2.65;;;;;;;5.69;100.00;102346.50;5050009;28;20057;-49
2022/10/12 03:18:17;;;;;;;7.63;3.05;;;;;;;5.62;100.00;102344.88;5048451;28;20563;-51
2022/10/12 03:20:49;;;;;;;4.80;2.20;;;;;;;5.66;100.00;102338.72;5050045;28;20080;-50
2022/10/12 03:23:17;;;;;;;7.78;2.83;;;;;;;5.66;100.00;102342.22;5050407;28;20064;-47
2022/10/12 03:25:45;;;;;;;7.85;2.85;;;;;;;5.59;100.00;102338.84;5052267;28;20037;-52
2022/10/12 03:28:13;;;;;;;6.90;2.63;;;;;;;5.70;100.00;102340.38;5050315;28;20072;-49
2022/10/12 03:30:42;;;;;;;6.10;2.55;;;;;;;5.71;100.00;102339.47;5050047;28;20456;-47
2022/10/12 03:33:10;;;;;;;6.18;2.33;;;;;;;5.55;100.00;102334.59;5048515;28;20456;-47
2022/10/12 03:35:39;;;;;;;8.63;2.67;;;;;;;5.46;100.00;102342.59;5050449;28;20052;-48
2022/10/12 03:38:08;;;;;;;7.45;3.33;;;;;;;5.41;100.00;102341.81;5049805;28;20083;-49
2022/10/12 03:40:37;;;;;;;6.93;2.60;;;;;;;5.45;100.00;102335.66;5049918;28;20044;-48
2022/10/12 03:43:06;;;;;;;6.78;2.85;;;;;;;5.48;100.00;102327.78;5049594;28;20059;-48
2022/10/12 03:45:35;;;;;;;9.00;3.25;;;;;;;5.46;100.00;102340.00;5051457;28;20055;-46
2022/10/12 03:48:03;;;;;;;12.60;3.72;;;;;;;5.32;100.00;102339.41;5048302;28;20041;-48
2022/10/12 03:50:35;;;;;;;6.90;2.90;;;;;;;5.27;100.00;102334.25;5050527;28;20396;-47
2022/10/12 03:53:05;;;;;;;7.40;3.30;;;;;;;5.38;100.00;102336.66;5050986;28;20053;-47
2022/10/12 03:55:34;;;;;;;7.57;2.92;;;;;;;5.34;100.00;102340.22;5051816;28;20554;-46
2022/10/12 03:58:02;;;;;;;7.93;2.80;;;;;;;5.37;100.00;102342.78;5049581;28;20576;-49
2022/10/12 04:00:31;;;;;;;7.22;3.10;;;;;;;5.35;100.00;102332.38;5048477;28;20051;-50
2022/10/12 04:02:59;;;;;;;7.00;3.00;;;;;;;5.27;100.00;102330.81;5047911;28;20040;-48
2022/10/12 04:05:27;;;;;;;6.18;3.00;;;;;;;5.24;100.00;102332.56;5049524;28;20045;-50
2022/10/12 04:07:56;;;;;;;5.55;2.53;;;;;;;5.24;100.00;102324.75;5049912;28;20076;-47
2022/10/12 04:10:24;;;;;;;5.68;2.70;;;;;;;5.19;100.00;102317.91;5049028;28;20049;-48
2022/10/12 04:12:53;;;;;;;6.90;2.80;;;;;;;5.16;100.00;102321.44;5049012;28;20061;-45
2022/10/12 04:15:21;;;;;;;9.25;3.30;;;;;;;5.16;100.00;102315.38;5049270;28;20503;-47
2022/10/12 04:17:54;;;;;;;5.95;2.92;;;;;;;5.18;100.00;102322.28;5048705;28;20503;-44
2022/10/12 04:20:22;;;;;;;6.43;3.03;;;;;;;5.13;100.00;102323.25;5049983;28;20571;-47
2022/10/12 04:22:50;;;;;;;8.45;3.10;;;;;;;5.10;100.00;102324.16;5049430;28;20052;-46
2022/10/12 04:25:19;;;;;;;6.03;2.58;;;;;;;5.10;100.00;102318.06;5051712;28;20037;-44
2022/10/12 04:27:47;;;;;;;5.97;2.85;;;;;;;5.07;100.00;102318.97;5051825;28;20052;-45
2022/10/12 04:30:17;;;;;;;6.28;2.80;;;;;;;5.00;100.00;102315.63;5051536;28;20091;-46
2022/10/12 04:32:45;;;;;;;6.35;2.95;;;;;;;4.97;100.00;102320.91;5051594;28;20045;-45
2022/10/12 04:35:13;;;;;;;6.30;2.92;;;;;;;4.86;100.00;102318.50;5051553;28;20049;-44
2022/10/12 04:37:41;;;;;;;6.38;3.78;;;;;;;4.80;100.00;102321.22;5051446;28;20174;-47
2022/10/12 04:40:10;;;;;;;5.97;3.40;;;;;;;4.82;100.00;102311.59;5050130;28;20137;-44
2022/10/12 04:42:38;;;;;;;6.60;3.42;;;;;;;4.84;100.00;102314.19;5051374;28;20049;-45
2022/10/12 04:45:07;;;;;;;6.95;3.33;;;;;;;4.85;100.00;102314.19;5051413;28;20049;-44
2022/10/12 04:47:37;;;;;;;7.25;3.40;;;;;;;4.88;100.00;102305.41;5051363;28;20118;-46
2022/10/12 04:50:06;;;;;;;9.02;3.53;;;;;;;4.75;100.00;102315.22;5050996;28;20090;-46
2022/10/12 04:52:35;;;;;;;6.43;3.47;;;;;;;4.90;100.00;102309.72;5048823;28;20053;-48
2022/10/12 04:55:03;;;;;;;8.75;4.00;;;;;;;4.81;100.00;102312.47;5049514;28;20052;-46
2022/10/12 04:57:31;;;;;;;5.95;3.33;;;;;;;4.65;100.00;102313.63;5054584;28;20048;-47
2022/10/12 04:59:59;;;;;;;7.47;3.30;;;;;;;4.63;100.00;102316.28;5054970;28;20045;-47
2022/10/12 05:02:27;;;;;;;6.57;3.13;;;;;;;4.65;100.00;102319.72;5054756;28;20075;-47
2022/10/12 05:04:57;;;;;;;10.55;5.80;;;;;;;4.65;100.00;102313.63;5054774;28;20041;-47
2022/10/12 05:07:25;;;;;;;7.20;4.43;;;;;;;4.62;100.00;102321.50;5054496;28;20049;-48
2022/10/12 05:09:53;;;;;;;8.82;3.80;;;;;;;4.57;100.00;102322.44;5054830;28;20041;-49
2022/10/12 05:12:21;;;;;;;11.50;4.78;;;;;;;4.55;100.00;102313.81;5054577;28;20434;-48
2022/10/12 05:14:49;;;;;;;9.38;3.85;;;;;;;4.67;100.00;102319.69;5053106;28;20048;-48
2022/10/12 05:17:17;;;;;;;8.43;4.22;;;;;;;4.55;100.00;102316.44;5050506;28;20690;-50
2022/10/12 05:19:45;;;;;;;9.18;3.97;;;;;;;4.50;100.00;102315.63;5052151;28;20068;-51
2022/10/12 05:22:15;;;;;;;8.82;4.20;;;;;;;4.52;100.00;102318.22;5051777;28;20107;-51
2022/10/12 05:24:43;;;;;;;7.05;3.80;;;;;;;4.63;100.00;102318.88;5053277;28;20044;-48
2022/10/12 05:27:11;;;;;;;8.05;4.05;;;;;;;4.57;100.00;102309.44;5054709;28;20064;-48
2022/10/12 05:29:39;;;;;;;7.57;3.95;;;;;;;4.57;100.00;102312.03;5054333;28;20079;-48
2022/10/12 05:32:08;;;;;;;8.48;4.15;;;;;;;4.51;100.00;102312.16;5050533;28;20496;-48
2022/10/12 05:34:36;;;;;;;9.15;4.88;;;;;;;4.59;100.00;102313.75;5052662;28;20059;-50
2022/10/12 05:37:04;;;;;;;6.90;4.22;;;;;;;4.56;100.00;102315.50;5054187;28;20110;-46
2022/10/12 05:39:35;;;;;;;8.43;4.80;;;;;;;4.53;100.00;102309.50;5054445;28;20059;-47
2022/10/12 05:42:03;;;;;;;12.27;4.32;;;;;;;4.48;100.00;102311.31;5051887;28;20057;-47
2022/10/12 05:44:32;;;;;;;8.93;4.30;;;;;;;4.44;100.00;102309.66;5050628;28;20051;-48
2022/10/12 05:47:00;;;;;;;8.73;4.15;;;;;;;4.50;100.00;102313.03;5050965;28;20094;-47
2022/10/12 05:49:29;;;;;;;9.18;4.03;;;;;;;4.43;100.00;102314.00;5050922;28;20127;-46
2022/10/12 05:51:57;;;;;;;8.18;3.88;;;;;;;4.44;100.00;102315.72;5051490;28;20045;-47
2022/10/12 05:54:25;;;;;;;8.35;4.13;;;;;;;4.49;100.00;102318.25;5051702;28;20064;-47
2022/10/12 05:56:55;;;;;;;10.48;4.15;;;;;;;4.40;100.00;102314.94;5053682;28;20053;-46
2022/10/12 05:59:23;;;;;;;10.18;5.13;;;;;;;4.44;100.00;102320.06;5053373;28;20080;-46
2022/10/12 06:01:51;;;;;;;9.25;4.18;;;;;;;4.41;100.00;102315.78;5051508;28;20056;-46
2022/10/12 06:04:19;;;;;;;8.70;4.15;;;;;;;4.48;100.00;102325.19;5049923;28;20126;-48
2022/10/12 06:06:48;;;;;;;9.18;4.15;;;;;;;4.37;100.00;102320.16;5050722;28;20083;-47
2022/10/12 06:09:19;;;;;;;8.60;4.60;;;;;;;4.44;100.00;102320.06;5050966;28;20614;-48
2022/10/12 06:11:47;;;;;;;10.88;4.03;;;;;;;4.43;100.00;102321.84;5051365;28;20049;-46
2022/10/12 06:14:16;;;;;;;7.72;4.18;;;;;;;4.52;100.00;102321.66;5051532;28;20554;-47
2022/10/12 06:16:44;;;;;;;9.50;4.35;;;;;;;4.49;100.00;102318.25;5051062;28;20056;-47
2022/10/12 06:19:12;;;;;;;8.50;4.15;;;;;;;4.53;100.00;102314.72;5051068;28;20041;-47
2022/10/12 06:21:40;;;;;;;9.32;3.92;;;;;;;4.55;100.00;102319.03;5050502;28;20106;-47
2022/10/12 06:24:09;;;;;;;8.43;4.40;;;;;;;4.56;100.00;102309.44;5050978;28;20067;-47
2022/10/12 06:26:37;;;;;;;7.82;4.00;;;;;;;4.46;100.00;102313.09;5051155;28;20406;-46
2022/10/12 06:29:05;;;;;;;14.40;4.88;;;;;;;4.53;100.00;102312.97;5051097;28;20101;-47
2022/10/12 06:31:36;;;;;;;9.38;4.90;;;;;;;4.56;100.00;102304.25;5049945;28;20041;-45
2022/10/12 06:34:04;;;;;;;8.95;5.00;;;;;;;4.69;100.00;102310.09;5049637;28;20060;-46
2022/10/12 06:36:33;;;;;;;9.52;5.13;;;;;;;4.80;100.00;102302.97;5052549;28;20048;-46
2022/10/12 06:39:01;;;;;;;11.30;5.35;;;;;;;4.89;100.00;102300.22;5053070;28;20113;-46
2022/10/12 06:41:29;;;;;;;11.15;5.18;;;;;;;4.88;100.00;102297.59;5052735;28;20041;-46
2022/10/12 06:43:57;;;;;;;11.60;5.53;;;;;;;4.90;100.00;102294.06;5052763;28;20060;-47
2022/10/12 06:46:25;;;;;;;10.40;6.07;;;;;;;4.90;100.00;102290.63;5052796;28;20111;-47
2022/10/12 06:48:55;;;;;;;17.95;6.70;;;;;;;4.96;100.00;102300.91;5051673;28;20045;-47
2022/10/12 06:51:23;;;;;;;12.85;7.10;;;;;;;5.10;100.00;102294.59;5052820;28;20420;-44
2022/10/12 06:53:54;;;;;;;15.55;7.35;;;;;;;5.13;100.00;102290.19;5052807;28;20141;-46
2022/10/12 06:56:22;;;;;;;12.32;7.00;;;;;;;5.15;100.00;102295.38;5052823;28;20075;-47
2022/10/12 06:58:54;;;;;;;11.27;6.68;;;;;;;5.17;100.00;102302.28;5052866;28;20041;-44
2022/10/12 07:01:22;;;;;;;12.82;7.30;;;;;;;5.19;100.00;102292.66;5052850;28;20040;-45
2022/10/12 07:03:51;;;;;;;14.40;6.90;;;;;;;5.27;100.00;102292.53;5052558;28;20103;-45
2022/10/12 07:06:24;;;;;;;13.32;7.15;;;;;;;5.49;100.00;102297.31;5051433;28;20067;-47
2022/10/12 07:08:54;;;;;;;12.65;6.85;;;;;;;5.54;100.00;102290.25;5052734;28;20132;-46
2022/10/12 07:11:22;;;;;;;10.63;6.32;;;;;;;5.59;100.00;102288.41;5052668;28;20123;-46
2022/10/12 07:13:51;;;;;;;10.77;7.03;;;;;;;5.57;100.00;102288.41;5052392;28;20041;-47
2022/10/12 07:16:19;;;;;;;10.00;6.53;;;;;;;5.61;100.00;102286.63;5049460;28;20056;-46
2022/10/12 07:18:47;;;;;;;14.68;6.72;;;;;;;5.70;100.00;102285.53;5049179;28;20049;-47
2022/10/12 07:21:15;;;;;;;13.10;7.47;;;;;;;5.74;100.00;102287.22;5052130;28;20135;-48
2022/10/12 07:23:44;;;;;;;13.70;7.63;;;;;;;5.83;100.00;102288.78;5052221;28;20044;-50
2022/10/12 07:26:13;;;;;;;11.38;6.88;;;;;;;5.98;100.00;102285.00;5052202;28;20053;-49
2022/10/12 07:28:41;;;;;;;13.95;7.15;;;;;;;6.16;100.00;102283.69;5052159;28;20106;-48
2022/10/12 07:31:10;;;;;;;12.68;7.57;;;;;;;6.35;100.00;102289.34;5052366;28;20045;-48
2022/10/12 07:33:38;;;;;;;15.55;7.85;;;;;;;6.32;100.00;102290.28;5052113;28;20048;-47
2022/10/12 07:36:07;;;;;;;13.52;7.70;;;;;;;6.39;100.00;102288.38;5050929;28;20119;-46
2022/10/12 07:38:50;;;;;;;15.13;7.78;;;;;;;6.47;100.00;102298.63;5049561;28;20080;-46
2022/10/12 07:41:19;;;;;;;15.50;8.32;;;;;;;6.71;100.00;102291.94;5051460;28;20048;-46
2022/10/12 07:43:47;;;;;;;16.90;8.30;;;;;;;6.81;100.00;102292.56;5048465;28;20099;-48
2022/10/12 07:46:15;;;;;;;15.25;8.70;;;;;;;6.76;100.00;102288.31;5050407;28;20083;-48
2022/10/12 07:48:43;;;;;;;13.63;7.78;;;;;;;6.76;100.00;102287.44;5050669;28;20044;-45
2022/10/12 07:51:17;;;;;;;15.45;8.05;;;;;;;6.81;100.00;102293.41;5051941;28;20126;-47
2022/10/12 07:53:46;;;;;;;11.27;7.50;;;;;;;6.85;100.00;102289.81;5051718;28;20071;-46
2022/10/12 07:56:15;;;;;;;13.60;7.55;;;;;;;6.94;100.00;102286.09;5051821;28;20123;-49
2022/10/12 07:58:47;;;;;;;13.07;8.13;;;;;;;7.04;100.00;102291.94;5051818;28;20049;-49
2022/10/12 08:01:16;;;;;;;14.88;7.38;;;;;;;7.23;100.00;102289.69;5051897;28;20052;-45
2022/10/12 08:03:44;;;;;;;15.70;7.43;;;;;;;7.17;100.00;102285.47;5052022;28;20540;-45
2022/10/12 08:06:14;;;;;;;14.07;8.15;;;;;;;7.33;100.00;102290.28;5051567;28;20052;-46
2022/10/12 08:08:43;;;;;;;17.77;7.88;;;;;;;7.32;100.00;102296.41;5051686;28;20570;-47
2022/10/12 08:11:11;;;;;;;19.92;7.63;;;;;;;7.46;100.00;102299.50;5050683;28;20055;-48
2022/10/12 08:13:42;;;;;;;17.35;8.15;;;;;;;7.49;100.00;102302.00;5050145;28;20045;-46
2022/10/12 08:16:12;;;;;;;14.05;7.70;;;;;;;7.57;100.00;102307.03;5048577;28;20045;-49
2022/10/12 08:18:40;;;;;;;19.13;7.40;;;;;;;7.65;100.00;102306.78;5051633;28;20045;-47
2022/10/12 08:21:11;;;;;;;14.52;7.32;;;;;;;7.79;100.00;102305.47;5051513;28;20044;-48
2022/10/12 08:23:39;;;;;;;16.10;7.47;;;;;;;7.97;100.00;102303.22;5051827;28;20088;-49
2022/10/12 08:26:08;;;;;;;16.27;7.95;;;;;;;8.35;100.00;102305.53;5050268;28;20070;-48
2022/10/12 08:28:36;;;;;;;15.93;8.07;;;;;;;8.56;100.00;102306.59;5049307;28;20055;-51
2022/10/12 08:31:11;;;;;;;16.98;9.30;;;;;;;8.72;100.00;102294.69;5052472;28;20048;-48
2022/10/12 08:33:40;;;;;;;16.58;8.35;;;;;;;8.94;100.00;102294.81;5051790;28;20112;-50
2022/10/12 08:36:08;;;;;;;13.07;8.18;;;;;;;9.13;100.00;102294.16;5053224;28;20083;-51
2022/10/12 08:38:38;;;;;;;19.63;9.40;;;;;;;9.47;100.00;102295.53;5053126;28;20053;-48
2022/10/12 08:41:23;;;;;;;16.40;9.15;;;;;;;9.70;100.00;102289.41;5054194;28;20048;-48
2022/10/12 08:44:05;;;;;;;15.70;9.15;;;;;;;9.88;100.00;102289.63;5053190;28;20095;-49
2022/10/12 08:46:34;;;;;;;16.02;9.45;;;;;;;9.90;100.00;102293.91;5052058;28;20049;-52
2022/10/12 08:49:06;;;;;;;20.52;9.23;;;;;;;10.08;100.00;102294.09;5051671;28;20135;-49
2022/10/12 08:51:46;;;;;;;15.90;8.95;;;;;;;10.23;100.00;102296.09;5054800;28;20496;-48
2022/10/12 08:54:17;;;;;;;19.30;10.00;;;;;;;10.38;100.00;102293.81;5054550;28;20045;-50
2022/10/12 08:56:45;;;;;;;16.13;9.25;;;;;;;10.49;100.00;102295.06;5053060;28;20122;-50
2022/10/12 08:59:14;;;;;;;15.60;9.95;;;;;;;10.53;100.00;102298.41;5052288;28;20076;-53
2022/10/12 09:01:57;;;;;;;20.98;9.73;;;;;;;10.55;100.00;102300.97;5052244;28;20049;-52
2022/10/12 09:04:40;;;;;;;19.88;9.88;;;;;;;10.67;100.00;102297.00;5051299;28;20051;-54
2022/10/12 09:07:14;;;;;;;19.50;9.95;;;;;;;10.80;100.00;102295.56;5052742;28;20037;-51
2022/10/12 09:09:56;;;;;;;14.35;9.68;;;;;;;10.83;100.00;102296.25;5053530;28;20059;-52
2022/10/12 09:12:37;;;;;;;19.98;10.07;;;;;;;11.11;100.00;102295.06;5054779;28;20103;-53
2022/10/12 09:15:12;;;;;;;18.17;10.57;;;;;;;11.32;100.00;102297.66;5051283;28;20063;-52
2022/10/12 09:17:46;;;;;;;22.17;10.15;;;;;;;11.43;100.00;102291.91;5050461;28;20287;-50
2022/10/12 09:20:18;;;;;;;19.25;10.13;;;;;;;11.37;100.00;102290.41;5052282;28;20061;-53
2022/10/12 09:22:50;;;;;;;16.58;9.93;;;;;;;11.49;100.00;102288.97;5052346;28;20588;-50
2022/10/12 09:25:23;;;;;;;18.25;9.82;;;;;;;11.66;100.00;102291.69;5051782;28;20094;-49
2022/10/12 09:27:51;;;;;;;;;;;;;;;11.89;100.00;102294.16;5054998;28;20037;-52
2022/10/12 09:30:20;;;;;;;22.02;9.93;;;;;;;11.88;100.00;102300.38;5054323;28;19927;-54
2022/10/12 09:33:06;;;;;;;14.95;9.32;;;;;;;12.12;100.00;102293.94;5052039;28;20148;-54
2022/10/12 09:35:36;;;;;;;16.35;9.77;;;;;;;12.44;100.00;102293.28;5050584;28;20048;-52
2022/10/12 09:38:06;;;;;;;17.10;9.88;;;;;;;12.42;100.00;102287.22;5054254;28;20049;-53
2022/10/12 09:40:34;;;;;;;18.85;9.45;;;;;;;12.79;100.00;102285.38;5054226;28;20103;-47
2022/10/12 09:43:04;;;;;;;19.98;9.45;;;;;;;12.88;100.00;102282.22;5053879;28;20059;-48
2022/10/12 09:45:34;;;;;;;21.27;9.27;;;;;;;13.25;100.00;102288.22;5053900;28;20503;-47
2022/10/12 09:48:17;;;;;;;18.52;9.70;;;;;;;13.18;100.00;102295.63;5053989;28;20613;-53
2022/10/12 09:50:50;;;;;;;18.25;9.27;;;;;;;13.23;100.00;102289.25;5050570;28;20415;-55
2022/10/12 09:53:26;;;;;;;18.85;10.50;;;;;;;13.39;100.00;102291.94;5050417;28;20118;-50
2022/10/12 09:56:04;;;;;;;16.23;9.30;;;;;;;13.85;100.00;102282.31;5053518;28;20032;-46
2022/10/12 09:58:41;;;;;;;19.02;9.95;;;;;;;13.94;100.00;102278.31;5053690;28;20454;-51
2022/10/12 10:01:20;;;;;;;17.02;9.18;;;;;;;14.32;100.00;102271.75;5051162;28;20049;-47
2022/10/12 10:04:07;;;;;;;21.92;10.15;;;;;;;14.41;98.22;102275.66;5050485;28;20385;-49
2022/10/12 10:06:35;;;;;;;17.48;10.07;;;;;;;14.67;98.47;102271.47;5051645;28;20048;-48
2022/10/12 10:09:04;;;;;;;16.25;10.02;;;;;;;14.87;94.80;102272.94;5051711;28;20051;-49
2022/10/12 10:11:32;;;;;;;16.45;10.43;;;;;;;15.06;93.47;102277.13;5051673;28;20500;-48
2022/10/12 10:14:01;;;;;;;18.40;10.77;;;;;;;15.55;93.33;102284.63;5052176;28;20041;-51
2022/10/12 10:16:30;;;;;;;19.92;11.60;;;;;;;15.62;92.04;102274.50;5052884;28;20442;-50
2022/10/12 10:19:01;;;;;;;22.05;12.45;;;;;;;15.82;90.67;102274.09;5053776;28;20076;-53
2022/10/12 10:21:33;;;;;;;18.15;11.50;;;;;;;16.25;87.24;102257.13;5053807;28;20515;-51
2022/10/12 10:24:03;;;;;;;22.03;12.17;;;;;;;16.37;86.13;102256.34;5053684;28;20045;-51
2022/10/12 10:26:51;;;;;;;22.15;12.52;;;;;;;16.37;84.36;102261.66;5053145;28;20463;-51
2022/10/12 10:29:31;;;;;;;23.63;14.02;;;;;;;16.44;85.07;102255.91;5053226;28;20128;-53
2022/10/12 10:32:22;;;;;;;26.50;13.90;;;;;;;16.63;81.41;102251.03;5052781;28;20072;-53
2022/10/12 10:35:03;;;;;;;22.08;13.25;;;;;;;17.11;79.15;102247.78;5049882;28;20087;-50
2022/10/12 10:37:33;;;;;;;22.08;12.82;;;;;;;17.52;77.26;102238.63;5052094;28;20527;-51
2022/10/12 10:40:02;;;;;;;25.05;13.60;;;;;;;18.07;75.64;102230.19;5053067;28;20436;-51
2022/10/12 10:42:32;;;;;;;18.65;12.10;;;;;;;18.31;72.58;102224.84;5053066;28;20454;-51
2022/10/12 10:45:02;;;;;;;22.38;12.10;;;;;;;18.34;70.41;102227.25;5051796;28;20052;-52
2022/10/12 10:47:32;;;;;;;21.83;13.35;;;;;;;18.30;70.32;102222.28;5052866;28;20045;-57
2022/10/12 10:50:05;;;;;;;20.33;11.90;;;;;;;18.47;68.75;102229.81;5053017;28;20056;-49
2022/10/12 10:52:34;;;;;;;;;;;;;;;18.24;69.41;102224.44;5053384;28;20078;-51
2022/10/12 10:55:20;;;;;;;19.10;11.05;;;;;;;18.47;68.71;102221.00;5051928;28;19987;-50
2022/10/12 10:58:01;;;;;;;24.15;12.32;;;;;;;18.75;66.53;102222.34;5050530;28;20048;-58
2022/10/12 11:00:33;;;;;;;21.27;11.48;;;;;;;18.82;65.92;102215.56;5050801;28;20515;-47
2022/10/12 11:03:14;;;;;;;20.65;11.10;;;;;;;18.38;65.20;102219.91;5048697;28;20064;-49
2022/10/12 11:05:48;;;;;;;16.90;10.88;;;;;;;18.58;66.46;102223.66;5050638;28;20454;-51
2022/10/12 11:08:22;;;;;;;17.20;10.18;;;;;;;18.31;67.36;102226.63;5050223;28;20071;-51
2022/10/12 11:10:55;;;;;;;18.80;10.45;;;;;;;18.63;66.61;102213.50;5051594;28;20496;-50
2022/10/12 11:13:29;;;;;;;18.50;11.40;;;;;;;18.50;65.80;102210.94;5050397;28;20048;-50
2022/10/12 11:16:01;;;;;;;19.17;10.00;;;;;;;18.41;66.74;102209.84;5050420;28;20554;-48
2022/10/12 11:18:36;;;;;;;20.13;11.48;;;;;;;18.69;66.09;102210.38;5052300;28;20091;-51
2022/10/12 11:21:12;;;;;;;20.02;10.40;;;;;;;18.59;64.95;102217.38;5052242;28;20057;-48
2022/10/12 11:23:45;;;;;;;21.13;11.70;;;;;;;18.49;65.26;102209.25;5052405;28;20033;-49
2022/10/12 11:26:23;;;;;;;18.83;9.80;;;;;;;18.86;65.45;102206.34;5052244;28;20052;-53
2022/10/12 11:28:54;;;;;;;18.02;10.02;;;;;;;19.40;63.11;102210.09;5052180;28;20075;-51
2022/10/12 11:31:26;;;;;;;19.05;10.65;;;;;;;19.94;60.61;102199.50;5050817;28;20056;-50
2022/10/12 11:34:00;;;;;;;17.17;10.48;;;;;;;20.22;58.50;102206.03;5052166;28;20051;-53
2022/10/12 11:36:32;;;;;;;20.38;11.93;;;;;;;20.16;57.65;102203.03;5051778;28;20045;-50
2022/10/12 11:39:03;;;;;;;17.25;11.20;;;;;;;20.50;56.04;102200.16;5050258;28;20496;-53